sensor_id;sensor_type;location;lat;lon;timestamp;P1;durP1;ratioP1;P2;durP2;ratioP2
34505;SDS011;20748;42.632;23.198;2023-04-16T00:00:25;10.13;;;5.20;;
34505;SDS011;20748;42.632;23.198;2023-04-16T00:02:58;9.23;;;5.35;;
34505;SDS011;20748;42.632;23.198;2023-04-16T00:05:31;14.00;;;6.47;;
34505;SDS011;20748;42.632;23.198;2023-04-16T00:08:04;12.07;;;6.10;;
34505;SDS011;20748;42.632;23.198;2023-04-16T00:10:36;12.65;;;5.43;;
34505;SDS011;20748;42.632;23.198;2023-04-16T00:13:09;15.70;;;6.25;;
34505;SDS011;20748;42.632;23.198;2023-04-16T00:15:41;9.05;;;5.00;;
34505;SDS011;20748;42.632;23.198;2023-04-16T00:18:14;13.32;;;5.40;;
34505;SDS011;20748;42.632;23.198;2023-04-16T00:20:46;10.80;;;4.85;;
34505;SDS011;20748;42.632;23.198;2023-04-16T00:23:19;9.45;;;5.50;;
34505;SDS011;20748;42.632;23.198;2023-04-16T00:25:52;9.07;;;4.38;;
34505;SDS011;20748;42.632;23.198;2023-04-16T00:28:24;11.20;;;5.20;;
34505;SDS011;20748;42.632;23.198;2023-04-16T00:30:59;16.92;;;5.35;;
34505;SDS011;20748;42.632;23.198;2023-04-16T00:33:33;11.25;;;5.68;;
34505;SDS011;20748;42.632;23.198;2023-04-16T00:36:06;10.75;;;4.75;;
34505;SDS011;20748;42.632;23.198;2023-04-16T00:38:39;14.13;;;5.07;;
34505;SDS011;20748;42.632;23.198;2023-04-16T00:41:11;12.43;;;5.45;;
34505;SDS011;20748;42.632;23.198;2023-04-16T00:43:44;14.98;;;5.00;;
34505;SDS011;20748;42.632;23.198;2023-04-16T00:46:16;12.52;;;5.55;;
34505;SDS011;20748;42.632;23.198;2023-04-16T00:49:00;11.82;;;4.28;;
34505;SDS011;20748;42.632;23.198;2023-04-16T00:51:52;7.60;;;3.53;;
34505;SDS011;20748;42.632;23.198;2023-04-16T00:54:25;11.05;;;4.72;;
34505;SDS011;20748;42.632;23.198;2023-04-16T00:56:58;10.23;;;5.15;;
34505;SDS011;20748;42.632;23.198;2023-04-16T00:59:30;16.50;;;5.22;;
34505;SDS011;20748;42.632;23.198;2023-04-16T01:02:03;18.20;;;5.07;;
34505;SDS011;20748;42.632;23.198;2023-04-16T01:04:35;11.82;;;4.43;;
34505;SDS011;20748;42.632;23.198;2023-04-16T01:07:08;11.63;;;5.28;;
34505;SDS011;20748;42.632;23.198;2023-04-16T01:09:42;12.10;;;4.95;;
34505;SDS011;20748;42.632;23.198;2023-04-16T01:12:14;15.93;;;6.05;;
34505;SDS011;20748;42.632;23.198;2023-04-16T01:14:46;13.88;;;6.88;;
34505;SDS011;20748;42.632;23.198;2023-04-16T01:17:19;14.15;;;5.10;;
34505;SDS011;20748;42.632;23.198;2023-04-16T01:19:51;16.23;;;6.90;;
34505;SDS011;20748;42.632;23.198;2023-04-16T01:22:24;10.07;;;5.05;;
34505;SDS011;20748;42.632;23.198;2023-04-16T01:24:58;6.10;;;3.42;;
34505;SDS011;20748;42.632;23.198;2023-04-16T01:27:30;8.70;;;3.42;;
34505;SDS011;20748;42.632;23.198;2023-04-16T01:30:03;9.15;;;3.15;;
34505;SDS011;20748;42.632;23.198;2023-04-16T01:32:47;10.32;;;4.28;;
34505;SDS011;20748;42.632;23.198;2023-04-16T01:35:19;5.10;;;2.90;;
34505;SDS011;20748;42.632;23.198;2023-04-16T01:37:53;6.70;;;3.13;;
34505;SDS011;20748;42.632;23.198;2023-04-16T01:40:25;11.63;;;3.42;;
34505;SDS011;20748;42.632;23.198;2023-04-16T01:42:57;5.90;;;2.60;;
34505;SDS011;20748;42.632;23.198;2023-04-16T01:45:30;11.73;;;3.05;;
34505;SDS011;20748;42.632;23.198;2023-04-16T01:48:03;6.47;;;2.13;;
34505;SDS011;20748;42.632;23.198;2023-04-16T01:50:36;5.22;;;2.33;;
34505;SDS011;20748;42.632;23.198;2023-04-16T01:53:09;5.60;;;2.33;;
34505;SDS011;20748;42.632;23.198;2023-04-16T01:55:41;3.70;;;1.40;;
34505;SDS011;20748;42.632;23.198;2023-04-16T01:58:13;2.42;;;1.17;;
34505;SDS011;20748;42.632;23.198;2023-04-16T02:00:46;2.80;;;1.35;;
34505;SDS011;20748;42.632;23.198;2023-04-16T02:03:18;5.43;;;2.20;;
34505;SDS011;20748;42.632;23.198;2023-04-16T02:05:52;4.07;;;1.38;;
34505;SDS011;20748;42.632;23.198;2023-04-16T02:08:25;3.92;;;1.85;;
34505;SDS011;20748;42.632;23.198;2023-04-16T02:10:58;6.65;;;2.78;;
34505;SDS011;20748;42.632;23.198;2023-04-16T02:13:30;13.02;;;4.43;;
34505;SDS011;20748;42.632;23.198;2023-04-16T02:16:03;5.90;;;2.33;;
34505;SDS011;20748;42.632;23.198;2023-04-16T02:18:53;5.70;;;2.03;;
34505;SDS011;20748;42.632;23.198;2023-04-16T02:21:27;9.35;;;2.88;;
34505;SDS011;20748;42.632;23.198;2023-04-16T02:24:01;4.85;;;2.78;;
34505;SDS011;20748;42.632;23.198;2023-04-16T02:26:35;3.90;;;2.45;;
34505;SDS011;20748;42.632;23.198;2023-04-16T02:29:12;6.63;;;2.38;;
34505;SDS011;20748;42.632;23.198;2023-04-16T02:31:51;5.65;;;2.55;;
34505;SDS011;20748;42.632;23.198;2023-04-16T02:34:24;5.72;;;2.25;;
34505;SDS011;20748;42.632;23.198;2023-04-16T02:36:56;7.00;;;2.60;;
34505;SDS011;20748;42.632;23.198;2023-04-16T02:39:30;9.43;;;2.65;;
34505;SDS011;20748;42.632;23.198;2023-04-16T02:42:02;5.57;;;1.77;;
34505;SDS011;20748;42.632;23.198;2023-04-16T02:44:34;3.60;;;2.05;;
34505;SDS011;20748;42.632;23.198;2023-04-16T02:47:07;6.93;;;2.45;;
34505;SDS011;20748;42.632;23.198;2023-04-16T02:49:39;4.10;;;1.67;;
34505;SDS011;20748;42.632;23.198;2023-04-16T02:52:11;5.25;;;1.95;;
34505;SDS011;20748;42.632;23.198;2023-04-16T02:54:47;3.60;;;1.80;;
34505;SDS011;20748;42.632;23.198;2023-04-16T02:57:20;5.78;;;1.98;;
34505;SDS011;20748;42.632;23.198;2023-04-16T02:59:52;3.67;;;1.85;;
34505;SDS011;20748;42.632;23.198;2023-04-16T03:02:24;2.33;;;1.58;;
34505;SDS011;20748;42.632;23.198;2023-04-16T03:04:57;4.95;;;2.55;;
34505;SDS011;20748;42.632;23.198;2023-04-16T03:07:30;6.50;;;2.47;;
34505;SDS011;20748;42.632;23.198;2023-04-16T03:10:03;5.47;;;1.50;;
34505;SDS011;20748;42.632;23.198;2023-04-16T03:12:36;3.33;;;1.77;;
34505;SDS011;20748;42.632;23.198;2023-04-16T03:15:11;4.20;;;2.40;;
34505;SDS011;20748;42.632;23.198;2023-04-16T03:17:43;4.57;;;1.88;;
34505;SDS011;20748;42.632;23.198;2023-04-16T03:20:16;3.35;;;1.27;;
34505;SDS011;20748;42.632;23.198;2023-04-16T03:22:49;3.22;;;1.50;;
34505;SDS011;20748;42.632;23.198;2023-04-16T03:25:23;3.22;;;1.40;;
34505;SDS011;20748;42.632;23.198;2023-04-16T03:27:55;3.15;;;1.08;;
34505;SDS011;20748;42.632;23.198;2023-04-16T03:30:28;1.73;;;0.90;;
34505;SDS011;20748;42.632;23.198;2023-04-16T03:33:00;7.15;;;1.45;;
34505;SDS011;20748;42.632;23.198;2023-04-16T03:35:33;2.20;;;1.10;;
34505;SDS011;20748;42.632;23.198;2023-04-16T03:38:06;16.95;;;5.93;;
34505;SDS011;20748;42.632;23.198;2023-04-16T03:40:39;12.80;;;5.65;;
34505;SDS011;20748;42.632;23.198;2023-04-16T03:43:12;9.45;;;4.95;;
34505;SDS011;20748;42.632;23.198;2023-04-16T03:45:44;10.23;;;5.35;;
34505;SDS011;20748;42.632;23.198;2023-04-16T03:48:17;16.80;;;6.80;;
34505;SDS011;20748;42.632;23.198;2023-04-16T03:50:49;20.55;;;7.10;;
34505;SDS011;20748;42.632;23.198;2023-04-16T03:53:24;11.38;;;6.32;;
34505;SDS011;20748;42.632;23.198;2023-04-16T03:55:57;16.17;;;7.65;;
34505;SDS011;20748;42.632;23.198;2023-04-16T03:58:29;11.68;;;6.32;;
34505;SDS011;20748;42.632;23.198;2023-04-16T04:01:02;17.30;;;6.10;;
34505;SDS011;20748;42.632;23.198;2023-04-16T04:03:34;11.00;;;5.45;;
34505;SDS011;20748;42.632;23.198;2023-04-16T04:06:07;9.98;;;4.93;;
34505;SDS011;20748;42.632;23.198;2023-04-16T04:08:39;7.97;;;5.05;;
34505;SDS011;20748;42.632;23.198;2023-04-16T04:11:12;8.55;;;3.88;;
34505;SDS011;20748;42.632;23.198;2023-04-16T04:13:46;8.43;;;4.68;;
34505;SDS011;20748;42.632;23.198;2023-04-16T04:16:19;7.97;;;4.50;;
34505;SDS011;20748;42.632;23.198;2023-04-16T04:18:51;8.80;;;3.80;;
34505;SDS011;20748;42.632;23.198;2023-04-16T04:21:24;11.77;;;4.32;;
34505;SDS011;20748;42.632;23.198;2023-04-16T04:23:56;10.45;;;4.47;;
34505;SDS011;20748;42.632;23.198;2023-04-16T04:26:29;48.58;;;16.80;;
34505;SDS011;20748;42.632;23.198;2023-04-16T04:29:02;82.13;;;27.20;;
34505;SDS011;20748;42.632;23.198;2023-04-16T04:31:34;50.80;;;17.75;;
34505;SDS011;20748;42.632;23.198;2023-04-16T04:34:07;46.30;;;16.20;;
34505;SDS011;20748;42.632;23.198;2023-04-16T04:36:39;23.42;;;9.27;;
34505;SDS011;20748;42.632;23.198;2023-04-16T04:39:12;19.25;;;7.88;;
34505;SDS011;20748;42.632;23.198;2023-04-16T04:41:47;12.80;;;8.05;;
34505;SDS011;20748;42.632;23.198;2023-04-16T04:44:22;8.68;;;3.00;;
34505;SDS011;20748;42.632;23.198;2023-04-16T04:46:55;4.30;;;1.88;;
34505;SDS011;20748;42.632;23.198;2023-04-16T04:49:28;6.15;;;2.28;;
34505;SDS011;20748;42.632;23.198;2023-04-16T04:52:00;4.70;;;2.72;;
34505;SDS011;20748;42.632;23.198;2023-04-16T04:54:33;5.15;;;2.13;;
34505;SDS011;20748;42.632;23.198;2023-04-16T04:57:06;5.93;;;2.92;;
34505;SDS011;20748;42.632;23.198;2023-04-16T04:59:39;6.78;;;3.25;;
34505;SDS011;20748;42.632;23.198;2023-04-16T05:02:11;13.00;;;5.57;;
34505;SDS011;20748;42.632;23.198;2023-04-16T05:04:44;21.38;;;9.90;;
34505;SDS011;20748;42.632;23.198;2023-04-16T05:07:16;15.05;;;7.18;;
34505;SDS011;20748;42.632;23.198;2023-04-16T05:09:48;7.90;;;2.80;;
34505;SDS011;20748;42.632;23.198;2023-04-16T05:12:21;9.18;;;2.78;;
34505;SDS011;20748;42.632;23.198;2023-04-16T05:14:54;4.55;;;2.40;;
34505;SDS011;20748;42.632;23.198;2023-04-16T05:17:26;4.28;;;1.48;;
34505;SDS011;20748;42.632;23.198;2023-04-16T05:19:59;5.70;;;2.65;;
34505;SDS011;20748;42.632;23.198;2023-04-16T05:22:31;3.67;;;2.35;;
34505;SDS011;20748;42.632;23.198;2023-04-16T05:25:04;4.40;;;2.20;;
34505;SDS011;20748;42.632;23.198;2023-04-16T05:27:37;4.97;;;2.10;;
34505;SDS011;20748;42.632;23.198;2023-04-16T05:30:10;5.95;;;2.33;;
34505;SDS011;20748;42.632;23.198;2023-04-16T05:32:42;5.60;;;1.85;;
34505;SDS011;20748;42.632;23.198;2023-04-16T05:35:15;10.35;;;4.90;;
34505;SDS011;20748;42.632;23.198;2023-04-16T05:37:48;52.00;;;21.88;;
34505;SDS011;20748;42.632;23.198;2023-04-16T05:40:21;6.45;;;4.05;;
34505;SDS011;20748;42.632;23.198;2023-04-16T05:42:54;7.70;;;3.17;;
34505;SDS011;20748;42.632;23.198;2023-04-16T05:45:26;6.07;;;3.25;;
34505;SDS011;20748;42.632;23.198;2023-04-16T05:47:59;9.15;;;3.83;;
34505;SDS011;20748;42.632;23.198;2023-04-16T05:50:32;11.60;;;4.10;;
34505;SDS011;20748;42.632;23.198;2023-04-16T05:53:04;6.57;;;3.50;;
34505;SDS011;20748;42.632;23.198;2023-04-16T05:55:38;9.80;;;3.65;;
34505;SDS011;20748;42.632;23.198;2023-04-16T05:58:11;8.30;;;2.90;;
34505;SDS011;20748;42.632;23.198;2023-04-16T06:00:44;5.32;;;2.92;;
34505;SDS011;20748;42.632;23.198;2023-04-16T06:03:16;7.20;;;2.58;;
34505;SDS011;20748;42.632;23.198;2023-04-16T06:05:49;9.07;;;5.28;;
34505;SDS011;20748;42.632;23.198;2023-04-16T06:08:21;6.82;;;3.58;;
34505;SDS011;20748;42.632;23.198;2023-04-16T06:10:53;11.43;;;4.43;;
34505;SDS011;20748;42.632;23.198;2023-04-16T06:13:27;9.43;;;2.90;;
34505;SDS011;20748;42.632;23.198;2023-04-16T06:15:59;4.45;;;2.47;;
34505;SDS011;20748;42.632;23.198;2023-04-16T06:18:32;8.98;;;4.15;;
34505;SDS011;20748;42.632;23.198;2023-04-16T06:21:04;5.68;;;3.20;;
34505;SDS011;20748;42.632;23.198;2023-04-16T06:23:37;11.15;;;4.22;;
34505;SDS011;20748;42.632;23.198;2023-04-16T06:26:09;5.20;;;2.22;;
34505;SDS011;20748;42.632;23.198;2023-04-16T06:28:42;5.80;;;2.92;;
34505;SDS011;20748;42.632;23.198;2023-04-16T06:31:15;6.60;;;3.30;;
34505;SDS011;20748;42.632;23.198;2023-04-16T06:33:47;9.55;;;4.57;;
34505;SDS011;20748;42.632;23.198;2023-04-16T06:36:19;7.03;;;2.83;;
34505;SDS011;20748;42.632;23.198;2023-04-16T06:38:52;12.75;;;2.88;;
34505;SDS011;20748;42.632;23.198;2023-04-16T06:41:24;6.50;;;2.72;;
34505;SDS011;20748;42.632;23.198;2023-04-16T06:43:57;7.47;;;2.40;;
34505;SDS011;20748;42.632;23.198;2023-04-16T06:46:30;4.18;;;1.65;;
34505;SDS011;20748;42.632;23.198;2023-04-16T06:49:02;4.60;;;2.05;;
34505;SDS011;20748;42.632;23.198;2023-04-16T06:51:34;4.13;;;2.35;;
34505;SDS011;20748;42.632;23.198;2023-04-16T06:54:07;4.10;;;1.88;;
34505;SDS011;20748;42.632;23.198;2023-04-16T06:56:39;4.55;;;1.75;;
34505;SDS011;20748;42.632;23.198;2023-04-16T06:59:12;2.60;;;1.58;;
34505;SDS011;20748;42.632;23.198;2023-04-16T07:01:44;2.05;;;1.25;;
34505;SDS011;20748;42.632;23.198;2023-04-16T07:04:17;2.47;;;1.30;;
34505;SDS011;20748;42.632;23.198;2023-04-16T07:06:49;3.42;;;1.42;;
34505;SDS011;20748;42.632;23.198;2023-04-16T07:09:21;2.22;;;1.15;;
34505;SDS011;20748;42.632;23.198;2023-04-16T07:11:54;2.20;;;0.80;;
34505;SDS011;20748;42.632;23.198;2023-04-16T07:14:27;3.20;;;1.48;;
34505;SDS011;20748;42.632;23.198;2023-04-16T07:16:59;2.15;;;0.85;;
34505;SDS011;20748;42.632;23.198;2023-04-16T07:19:31;3.22;;;1.30;;
34505;SDS011;20748;42.632;23.198;2023-04-16T07:22:04;4.93;;;1.45;;
34505;SDS011;20748;42.632;23.198;2023-04-16T07:24:36;5.50;;;1.50;;
34505;SDS011;20748;42.632;23.198;2023-04-16T07:27:08;2.78;;;1.10;;
34505;SDS011;20748;42.632;23.198;2023-04-16T07:29:42;1.45;;;0.57;;
34505;SDS011;20748;42.632;23.198;2023-04-16T07:32:20;2.25;;;0.80;;
34505;SDS011;20748;42.632;23.198;2023-04-16T07:34:53;3.55;;;1.27;;
34505;SDS011;20748;42.632;23.198;2023-04-16T07:37:26;4.10;;;2.35;;
34505;SDS011;20748;42.632;23.198;2023-04-16T07:39:58;5.13;;;2.03;;
34505;SDS011;20748;42.632;23.198;2023-04-16T07:42:31;4.82;;;2.30;;
34505;SDS011;20748;42.632;23.198;2023-04-16T07:45:05;5.90;;;2.10;;
34505;SDS011;20748;42.632;23.198;2023-04-16T07:47:38;3.92;;;1.90;;
34505;SDS011;20748;42.632;23.198;2023-04-16T07:50:10;6.10;;;2.83;;
34505;SDS011;20748;42.632;23.198;2023-04-16T07:52:43;3.75;;;1.90;;
34505;SDS011;20748;42.632;23.198;2023-04-16T07:55:16;4.93;;;1.80;;
34505;SDS011;20748;42.632;23.198;2023-04-16T07:57:48;3.63;;;1.45;;
34505;SDS011;20748;42.632;23.198;2023-04-16T08:00:21;4.57;;;1.38;;
34505;SDS011;20748;42.632;23.198;2023-04-16T08:02:54;3.63;;;1.10;;
34505;SDS011;20748;42.632;23.198;2023-04-16T08:05:26;5.22;;;1.38;;
34505;SDS011;20748;42.632;23.198;2023-04-16T08:07:59;2.03;;;0.80;;
34505;SDS011;20748;42.632;23.198;2023-04-16T08:10:31;4.68;;;1.67;;
34505;SDS011;20748;42.632;23.198;2023-04-16T08:13:04;1.35;;;0.70;;
34505;SDS011;20748;42.632;23.198;2023-04-16T08:15:37;2.03;;;0.68;;
34505;SDS011;20748;42.632;23.198;2023-04-16T08:18:09;1.77;;;0.85;;
34505;SDS011;20748;42.632;23.198;2023-04-16T08:20:45;2.60;;;1.30;;
34505;SDS011;20748;42.632;23.198;2023-04-16T08:23:18;4.30;;;1.42;;
34505;SDS011;20748;42.632;23.198;2023-04-16T08:25:50;2.67;;;1.33;;
34505;SDS011;20748;42.632;23.198;2023-04-16T08:28:24;4.95;;;1.85;;
34505;SDS011;20748;42.632;23.198;2023-04-16T08:30:57;3.10;;;1.33;;
34505;SDS011;20748;42.632;23.198;2023-04-16T08:33:29;3.90;;;2.08;;
34505;SDS011;20748;42.632;23.198;2023-04-16T08:36:01;2.20;;;1.05;;
34505;SDS011;20748;42.632;23.198;2023-04-16T08:38:34;3.13;;;1.50;;
34505;SDS011;20748;42.632;23.198;2023-04-16T08:41:07;8.02;;;2.58;;
34505;SDS011;20748;42.632;23.198;2023-04-16T08:43:43;3.88;;;2.15;;
34505;SDS011;20748;42.632;23.198;2023-04-16T08:46:16;5.22;;;2.20;;
34505;SDS011;20748;42.632;23.198;2023-04-16T08:48:53;5.15;;;2.40;;
34505;SDS011;20748;42.632;23.198;2023-04-16T08:51:27;4.25;;;2.13;;
34505;SDS011;20748;42.632;23.198;2023-04-16T08:54:04;4.65;;;2.63;;
34505;SDS011;20748;42.632;23.198;2023-04-16T08:56:40;3.90;;;2.20;;
34505;SDS011;20748;42.632;23.198;2023-04-16T08:59:14;4.95;;;2.00;;
34505;SDS011;20748;42.632;23.198;2023-04-16T09:01:47;4.72;;;2.15;;
34505;SDS011;20748;42.632;23.198;2023-04-16T09:04:24;5.50;;;2.40;;
34505;SDS011;20748;42.632;23.198;2023-04-16T09:06:58;3.17;;;2.05;;
34505;SDS011;20748;42.632;23.198;2023-04-16T09:09:32;3.70;;;2.45;;
34505;SDS011;20748;42.632;23.198;2023-04-16T09:12:05;5.75;;;2.88;;
34505;SDS011;20748;42.632;23.198;2023-04-16T09:14:39;3.83;;;1.95;;
34505;SDS011;20748;42.632;23.198;2023-04-16T09:17:14;3.35;;;1.92;;
34505;SDS011;20748;42.632;23.198;2023-04-16T09:19:47;5.68;;;2.15;;
34505;SDS011;20748;42.632;23.198;2023-04-16T09:22:19;3.50;;;1.83;;
34505;SDS011;20748;42.632;23.198;2023-04-16T09:24:51;3.95;;;1.67;;
34505;SDS011;20748;42.632;23.198;2023-04-16T09:27:24;3.38;;;1.90;;
34505;SDS011;20748;42.632;23.198;2023-04-16T09:29:57;2.75;;;1.55;;
34505;SDS011;20748;42.632;23.198;2023-04-16T09:32:30;3.65;;;1.83;;
34505;SDS011;20748;42.632;23.198;2023-04-16T09:35:03;5.03;;;1.77;;
34505;SDS011;20748;42.632;23.198;2023-04-16T09:37:35;3.47;;;1.70;;
34505;SDS011;20748;42.632;23.198;2023-04-16T09:40:08;4.30;;;1.77;;
34505;SDS011;20748;42.632;23.198;2023-04-16T09:42:40;5.05;;;2.05;;
34505;SDS011;20748;42.632;23.198;2023-04-16T09:45:13;2.33;;;1.45;;
34505;SDS011;20748;42.632;23.198;2023-04-16T09:47:46;4.35;;;1.50;;
34505;SDS011;20748;42.632;23.198;2023-04-16T09:50:19;6.85;;;1.70;;
34505;SDS011;20748;42.632;23.198;2023-04-16T09:52:51;3.60;;;1.27;;
34505;SDS011;20748;42.632;23.198;2023-04-16T09:55:25;5.28;;;1.23;;
34505;SDS011;20748;42.632;23.198;2023-04-16T09:57:58;4.85;;;1.40;;
34505;SDS011;20748;42.632;23.198;2023-04-16T10:00:32;4.22;;;1.02;;
34505;SDS011;20748;42.632;23.198;2023-04-16T10:03:05;1.98;;;1.02;;
34505;SDS011;20748;42.632;23.198;2023-04-16T10:05:38;1.98;;;1.17;;
34505;SDS011;20748;42.632;23.198;2023-04-16T10:08:12;3.90;;;1.20;;
34505;SDS011;20748;42.632;23.198;2023-04-16T10:10:45;4.53;;;1.10;;
34505;SDS011;20748;42.632;23.198;2023-04-16T10:13:17;3.55;;;1.25;;
34505;SDS011;20748;42.632;23.198;2023-04-16T10:15:50;3.08;;;1.60;;
34505;SDS011;20748;42.632;23.198;2023-04-16T10:18:23;2.42;;;1.08;;
34505;SDS011;20748;42.632;23.198;2023-04-16T10:20:56;2.80;;;1.38;;
34505;SDS011;20748;42.632;23.198;2023-04-16T10:23:28;3.00;;;1.30;;
34505;SDS011;20748;42.632;23.198;2023-04-16T10:26:01;4.05;;;1.20;;
34505;SDS011;20748;42.632;23.198;2023-04-16T10:28:33;1.63;;;1.00;;
34505;SDS011;20748;42.632;23.198;2023-04-16T10:31:07;2.05;;;1.02;;
34505;SDS011;20748;42.632;23.198;2023-04-16T10:33:41;2.97;;;1.98;;
34505;SDS011;20748;42.632;23.198;2023-04-16T10:36:15;6.13;;;1.35;;
34505;SDS011;20748;42.632;23.198;2023-04-16T10:38:56;2.10;;;1.13;;
34505;SDS011;20748;42.632;23.198;2023-04-16T10:41:31;2.95;;;1.00;;
34505;SDS011;20748;42.632;23.198;2023-04-16T10:44:04;3.88;;;1.20;;
34505;SDS011;20748;42.632;23.198;2023-04-16T10:46:40;3.05;;;1.08;;
34505;SDS011;20748;42.632;23.198;2023-04-16T10:49:14;3.35;;;1.30;;
34505;SDS011;20748;42.632;23.198;2023-04-16T10:51:52;2.03;;;1.17;;
34505;SDS011;20748;42.632;23.198;2023-04-16T10:54:26;2.10;;;1.23;;
34505;SDS011;20748;42.632;23.198;2023-04-16T10:57:02;2.38;;;1.42;;
34505;SDS011;20748;42.632;23.198;2023-04-16T10:59:36;1.77;;;1.23;;
34505;SDS011;20748;42.632;23.198;2023-04-16T11:02:11;3.45;;;1.30;;
34505;SDS011;20748;42.632;23.198;2023-04-16T11:04:46;3.30;;;1.23;;
34505;SDS011;20748;42.632;23.198;2023-04-16T11:07:20;1.95;;;1.13;;
34505;SDS011;20748;42.632;23.198;2023-04-16T11:10:03;2.95;;;1.33;;
34505;SDS011;20748;42.632;23.198;2023-04-16T11:12:37;3.38;;;1.20;;
34505;SDS011;20748;42.632;23.198;2023-04-16T11:15:11;3.10;;;1.17;;
34505;SDS011;20748;42.632;23.198;2023-04-16T11:17:45;4.15;;;1.45;;
34505;SDS011;20748;42.632;23.198;2023-04-16T11:20:19;1.85;;;1.08;;
34505;SDS011;20748;42.632;23.198;2023-04-16T11:22:54;2.72;;;1.58;;
34505;SDS011;20748;42.632;23.198;2023-04-16T11:25:28;3.42;;;1.25;;
34505;SDS011;20748;42.632;23.198;2023-04-16T11:28:01;3.92;;;1.17;;
34505;SDS011;20748;42.632;23.198;2023-04-16T11:30:34;2.33;;;1.73;;
34505;SDS011;20748;42.632;23.198;2023-04-16T11:33:08;5.65;;;1.77;;
34505;SDS011;20748;42.632;23.198;2023-04-16T11:35:42;2.63;;;1.10;;
34505;SDS011;20748;42.632;23.198;2023-04-16T11:38:17;4.63;;;1.38;;
34505;SDS011;20748;42.632;23.198;2023-04-16T11:40:49;7.57;;;1.30;;
34505;SDS011;20748;42.632;23.198;2023-04-16T11:43:24;1.92;;;1.00;;
34505;SDS011;20748;42.632;23.198;2023-04-16T11:45:58;2.10;;;1.25;;
34505;SDS011;20748;42.632;23.198;2023-04-16T11:48:47;4.07;;;1.85;;
34505;SDS011;20748;42.632;23.198;2023-04-16T11:51:21;2.85;;;1.60;;
34505;SDS011;20748;42.632;23.198;2023-04-16T11:53:54;6.47;;;1.42;;
34505;SDS011;20748;42.632;23.198;2023-04-16T11:56:27;4.25;;;1.73;;
34505;SDS011;20748;42.632;23.198;2023-04-16T11:59:07;3.47;;;1.40;;
34505;SDS011;20748;42.632;23.198;2023-04-16T12:01:41;3.55;;;1.48;;
34505;SDS011;20748;42.632;23.198;2023-04-16T12:04:18;3.28;;;1.40;;
34505;SDS011;20748;42.632;23.198;2023-04-16T12:07:07;2.42;;;1.50;;
34505;SDS011;20748;42.632;23.198;2023-04-16T12:09:43;1.73;;;1.42;;
34505;SDS011;20748;42.632;23.198;2023-04-16T12:12:24;3.22;;;1.30;;
34505;SDS011;20748;42.632;23.198;2023-04-16T12:14:58;2.70;;;1.90;;
34505;SDS011;20748;42.632;23.198;2023-04-16T12:17:33;4.35;;;1.75;;
34505;SDS011;20748;42.632;23.198;2023-04-16T12:20:07;3.78;;;1.90;;
34505;SDS011;20748;42.632;23.198;2023-04-16T12:22:43;3.35;;;1.80;;
34505;SDS011;20748;42.632;23.198;2023-04-16T12:25:17;5.05;;;1.63;;
34505;SDS011;20748;42.632;23.198;2023-04-16T12:27:49;3.60;;;1.50;;
34505;SDS011;20748;42.632;23.198;2023-04-16T12:30:25;3.55;;;1.40;;
34505;SDS011;20748;42.632;23.198;2023-04-16T12:35:49;3.00;;;1.70;;
34505;SDS011;20748;42.632;23.198;2023-04-16T12:38:22;7.28;;;1.83;;
34505;SDS011;20748;42.632;23.198;2023-04-16T12:40:55;6.38;;;2.50;;
34505;SDS011;20748;42.632;23.198;2023-04-16T12:43:28;3.33;;;1.67;;
34505;SDS011;20748;42.632;23.198;2023-04-16T12:46:01;4.63;;;1.13;;
34505;SDS011;20748;42.632;23.198;2023-04-16T12:48:35;8.25;;;3.47;;
34505;SDS011;20748;42.632;23.198;2023-04-16T12:51:08;2.75;;;1.30;;
34505;SDS011;20748;42.632;23.198;2023-04-16T12:53:41;7.97;;;1.63;;
34505;SDS011;20748;42.632;23.198;2023-04-16T12:56:13;4.47;;;1.50;;
34505;SDS011;20748;42.632;23.198;2023-04-16T12:58:46;3.33;;;2.20;;
34505;SDS011;20748;42.632;23.198;2023-04-16T13:01:22;3.08;;;1.70;;
34505;SDS011;20748;42.632;23.198;2023-04-16T13:03:54;4.50;;;2.17;;
34505;SDS011;20748;42.632;23.198;2023-04-16T13:06:27;3.95;;;1.90;;
34505;SDS011;20748;42.632;23.198;2023-04-16T13:09:00;6.18;;;1.85;;
34505;SDS011;20748;42.632;23.198;2023-04-16T13:11:32;4.55;;;1.75;;
34505;SDS011;20748;42.632;23.198;2023-04-16T13:14:05;5.32;;;2.70;;
34505;SDS011;20748;42.632;23.198;2023-04-16T13:16:37;4.18;;;2.20;;
34505;SDS011;20748;42.632;23.198;2023-04-16T13:19:09;2.63;;;1.65;;
34505;SDS011;20748;42.632;23.198;2023-04-16T13:21:42;1.80;;;1.13;;
34505;SDS011;20748;42.632;23.198;2023-04-16T13:24:15;1.90;;;1.00;;
34505;SDS011;20748;42.632;23.198;2023-04-16T13:26:47;1.48;;;1.15;;
34505;SDS011;20748;42.632;23.198;2023-04-16T13:29:20;3.17;;;1.63;;
34505;SDS011;20748;42.632;23.198;2023-04-16T13:31:52;1.05;;;0.70;;
34505;SDS011;20748;42.632;23.198;2023-04-16T13:34:25;2.78;;;1.52;;
34505;SDS011;20748;42.632;23.198;2023-04-16T13:36:57;7.75;;;2.20;;
34505;SDS011;20748;42.632;23.198;2023-04-16T13:39:31;1.42;;;0.98;;
34505;SDS011;20748;42.632;23.198;2023-04-16T13:42:03;3.70;;;1.40;;
34505;SDS011;20748;42.632;23.198;2023-04-16T13:44:35;5.45;;;3.30;;
34505;SDS011;20748;42.632;23.198;2023-04-16T13:47:08;3.78;;;2.15;;
34505;SDS011;20748;42.632;23.198;2023-04-16T13:49:41;4.10;;;2.00;;
34505;SDS011;20748;42.632;23.198;2023-04-16T13:52:13;4.72;;;2.47;;
34505;SDS011;20748;42.632;23.198;2023-04-16T13:54:47;5.95;;;2.70;;
34505;SDS011;20748;42.632;23.198;2023-04-16T13:57:23;7.15;;;3.08;;
34505;SDS011;20748;42.632;23.198;2023-04-16T13:59:56;8.02;;;3.22;;
34505;SDS011;20748;42.632;23.198;2023-04-16T14:02:28;6.72;;;4.13;;
34505;SDS011;20748;42.632;23.198;2023-04-16T14:05:01;6.90;;;3.78;;
34505;SDS011;20748;42.632;23.198;2023-04-16T14:07:33;5.35;;;2.95;;
34505;SDS011;20748;42.632;23.198;2023-04-16T14:10:07;4.82;;;2.67;;
34505;SDS011;20748;42.632;23.198;2023-04-16T14:12:41;2.38;;;1.17;;
34505;SDS011;20748;42.632;23.198;2023-04-16T14:15:14;6.43;;;2.65;;
34505;SDS011;20748;42.632;23.198;2023-04-16T14:17:46;3.08;;;1.50;;
34505;SDS011;20748;42.632;23.198;2023-04-16T14:20:18;3.47;;;2.08;;
34505;SDS011;20748;42.632;23.198;2023-04-16T14:22:51;5.90;;;2.50;;
34505;SDS011;20748;42.632;23.198;2023-04-16T14:25:24;5.15;;;2.47;;
34505;SDS011;20748;42.632;23.198;2023-04-16T14:27:57;3.85;;;1.33;;
34505;SDS011;20748;42.632;23.198;2023-04-16T14:30:30;0.77;;;0.60;;
34505;SDS011;20748;42.632;23.198;2023-04-16T14:33:03;2.92;;;1.38;;
34505;SDS011;20748;42.632;23.198;2023-04-16T14:35:36;3.20;;;1.80;;
34505;SDS011;20748;42.632;23.198;2023-04-16T14:38:08;4.25;;;2.63;;
34505;SDS011;20748;42.632;23.198;2023-04-16T14:40:42;5.45;;;2.90;;
34505;SDS011;20748;42.632;23.198;2023-04-16T14:43:15;4.85;;;2.28;;
34505;SDS011;20748;42.632;23.198;2023-04-16T14:45:47;5.10;;;2.53;;
34505;SDS011;20748;42.632;23.198;2023-04-16T14:48:19;8.27;;;4.60;;
34505;SDS011;20748;42.632;23.198;2023-04-16T14:50:52;5.32;;;3.47;;
34505;SDS011;20748;42.632;23.198;2023-04-16T14:53:25;6.07;;;3.47;;
34505;SDS011;20748;42.632;23.198;2023-04-16T14:55:58;4.60;;;2.60;;
34505;SDS011;20748;42.632;23.198;2023-04-16T14:58:30;5.22;;;2.63;;
34505;SDS011;20748;42.632;23.198;2023-04-16T15:01:03;3.42;;;2.08;;
34505;SDS011;20748;42.632;23.198;2023-04-16T15:03:35;4.38;;;1.52;;
34505;SDS011;20748;42.632;23.198;2023-04-16T15:06:08;3.35;;;1.40;;
34505;SDS011;20748;42.632;23.198;2023-04-16T15:08:40;2.53;;;1.70;;
34505;SDS011;20748;42.632;23.198;2023-04-16T15:11:13;2.72;;;1.35;;